Zhetygen Airport

Jump to: basic info | weather | comments

Related pages: nearby airports | nearby navaids

Basic information (top)

Location: lon 43.733101, lat 77.119400, elev 1,638 ft / 499 m msl
Status: small_airport

Weather (top)

Current conditions for Almaty Airport 23nm (43km) S (rec'd 2014/09/01 11:00Z):

UAAA 011100Z 11003MPS 070V140 9999 FEW200 35/M03 Q1007 R88/65D NOSIG

Airport forecast for Almaty Airport 23nm (43km) S (rec'd 2014/09/01 06:18Z):

TAF TAF UAAA 010500Z 0106/0206 04006MPS 9999 NSC TX34/0109Z TN16/0200Z 
      TEMPO 0113/0116 3000 FU 
      BECMG 0116/0117 16005MPS 
      BECMG 0203/0204 04006MPS SCT050CB BKN100

Latest comments (top)

No comments yet for Zhetygen Airport

More... (top)

See also NOTAMs and nearby airports and navaids, or visit the Zhetygen Airport page at the main OurAirports website..